Portada
METAR-TAF:

METAR-TAF

Aeropuertos :

Aeropuerto Internacional de Bujumbura

Buyumbura, Burundi

latitud: 03-19S, longitud: 029-19E, altitud: 782 m

Observación

El informe se hizo hace 12 horas y 30 minutos, a las 15:00 UTC
Viento calma
Temperatura
Presión 1009 hPa
Visibilidad 10 km o más
Escasas nubes a una altura de 2500 ft, Cumulus congestus.

METAR: HBBA 211500Z 00000KT 9999 FEW025TCU BKN10028/21 Q1009 NOSIG

Hora: 05:30 (03:30 UTC)

Pronóstico

El informe se hizo hace 4 horas y 30 minutos, a las 23:00 UTC
Pronóstico válido del 22 a las 00 UTC al 23 a las 06 UTC
Viento kt del norte
Visibilidad 10 km o más
sin nubes por debajo de 1500 m y sin presencia de cumulonimbus.

TAF: HBBA 212300Z 2200/2306 00000KT CAVOK BECAMG2202/2204 36003KT 9000 FEW030 SCT100 BECMG2207/2209 7010G20KT 9999 SCT030 BKN100 BECMG2216/2218 00000KT CAVOK

Observaciones y pronósticos meteorológicos de más de 4000 aeropuertos (mensajes METAR y TAF).

Los puntos amarillos y rojos representan las estaciones disponibles.

Ponga el ratón en el punto deseado para ver el nombre de la estación.

Haga clic para ver las observaciones y los pronósticos meteorológicos.

Para cambiar el mapa : haga clic en los botones verdes con una cruz de color negro para hacer un zoom, en el botón verde con un guión para alejar o en las flechas verdes para mapas adyacentes.


METAR-TAF: